sensor_id;sensor_type;location;lat;lon;timestamp;pressure;altitude;pressure_sealevel;temperature;humidity
5500;BME280;2772;42.700;23.304;2023-02-04T00:01:44;94937.00;;;3.58;100.00
5500;BME280;2772;42.700;23.304;2023-02-04T00:04:11;94934.66;;;3.51;100.00
5500;BME280;2772;42.700;23.304;2023-02-04T00:06:40;94925.69;;;3.62;100.00
5500;BME280;2772;42.700;23.304;2023-02-04T00:09:06;94921.44;;;3.66;100.00
5500;BME280;2772;42.700;23.304;2023-02-04T00:11:33;94917.75;;;3.72;100.00
5500;BME280;2772;42.700;23.304;2023-02-04T00:14:00;94911.13;;;3.85;100.00
5500;BME280;2772;42.700;23.304;2023-02-04T00:16:27;94906.34;;;3.97;100.00
5500;BME280;2772;42.700;23.304;2023-02-04T00:18:53;94910.56;;;3.98;100.00
5500;BME280;2772;42.700;23.304;2023-02-04T00:21:20;94916.88;;;3.97;100.00
5500;BME280;2772;42.700;23.304;2023-02-04T00:23:48;94903.44;;;3.98;100.00
5500;BME280;2772;42.700;23.304;2023-02-04T00:26:15;94894.31;;;4.29;100.00
5500;BME280;2772;42.700;23.304;2023-02-04T00:28:42;94893.88;;;4.17;100.00
5500;BME280;2772;42.700;23.304;2023-02-04T00:31:09;94879.66;;;4.18;100.00
5500;BME280;2772;42.700;23.304;2023-02-04T00:33:35;94886.50;;;4.14;100.00
5500;BME280;2772;42.700;23.304;2023-02-04T00:36:02;94904.69;;;4.11;100.00
5500;BME280;2772;42.700;23.304;2023-02-04T00:38:29;94900.25;;;4.01;100.00
5500;BME280;2772;42.700;23.304;2023-02-04T00:40:57;94883.03;;;3.65;100.00
5500;BME280;2772;42.700;23.304;2023-02-04T00:43:24;94884.59;;;3.71;100.00
5500;BME280;2772;42.700;23.304;2023-02-04T00:45:51;94893.53;;;3.70;100.00
5500;BME280;2772;42.700;23.304;2023-02-04T00:48:18;94889.31;;;3.69;100.00
5500;BME280;2772;42.700;23.304;2023-02-04T00:50:45;94872.00;;;3.53;100.00
5500;BME280;2772;42.700;23.304;2023-02-04T00:53:11;94880.41;;;3.60;100.00
5500;BME280;2772;42.700;23.304;2023-02-04T00:55:38;94885.16;;;3.58;100.00
5500;BME280;2772;42.700;23.304;2023-02-04T00:58:06;94863.75;;;3.80;100.00
5500;BME280;2772;42.700;23.304;2023-02-04T01:00:33;94857.03;;;4.07;100.00
5500;BME280;2772;42.700;23.304;2023-02-04T01:03:00;94851.44;;;4.14;100.00
5500;BME280;2772;42.700;23.304;2023-02-04T01:05:26;94844.63;;;4.51;100.00
5500;BME280;2772;42.700;23.304;2023-02-04T01:07:53;94838.19;;;4.34;100.00
5500;BME280;2772;42.700;23.304;2023-02-04T01:10:20;94836.78;;;4.46;100.00
5500;BME280;2772;42.700;23.304;2023-02-04T01:12:47;94829.75;;;4.65;100.00
5500;BME280;2772;42.700;23.304;2023-02-04T01:15:15;94829.31;;;4.53;100.00
5500;BME280;2772;42.700;23.304;2023-02-04T01:17:42;94832.75;;;4.54;100.00
5500;BME280;2772;42.700;23.304;2023-02-04T01:20:09;94822.78;;;4.46;100.00
5500;BME280;2772;42.700;23.304;2023-02-04T01:22:36;94821.69;;;4.52;100.00
5500;BME280;2772;42.700;23.304;2023-02-04T01:25:04;94828.03;;;4.51;100.00
5500;BME280;2772;42.700;23.304;2023-02-04T01:27:31;94817.97;;;4.53;100.00
5500;BME280;2772;42.700;23.304;2023-02-04T01:29:57;94817.13;;;4.62;100.00
5500;BME280;2772;42.700;23.304;2023-02-04T01:32:25;94805.41;;;4.78;100.00
5500;BME280;2772;42.700;23.304;2023-02-04T01:34:52;94810.47;;;4.99;100.00
5500;BME280;2772;42.700;23.304;2023-02-04T01:37:19;94790.44;;;4.98;100.00
5500;BME280;2772;42.700;23.304;2023-02-04T01:39:46;94810.06;;;4.86;100.00
5500;BME280;2772;42.700;23.304;2023-02-04T01:42:12;94807.69;;;4.90;100.00
5500;BME280;2772;42.700;23.304;2023-02-04T01:44:39;94796.84;;;4.92;100.00
5500;BME280;2772;42.700;23.304;2023-02-04T01:47:06;94792.56;;;4.96;100.00
5500;BME280;2772;42.700;23.304;2023-02-04T01:49:34;94800.06;;;4.83;100.00
5500;BME280;2772;42.700;23.304;2023-02-04T01:52:01;94784.94;;;4.94;100.00
5500;BME280;2772;42.700;23.304;2023-02-04T01:54:29;94780.56;;;5.08;100.00
5500;BME280;2772;42.700;23.304;2023-02-04T01:56:56;94791.09;;;4.84;100.00
5500;BME280;2772;42.700;23.304;2023-02-04T01:59:23;94784.63;;;5.01;100.00
5500;BME280;2772;42.700;23.304;2023-02-04T02:01:51;94780.31;;;4.81;100.00
5500;BME280;2772;42.700;23.304;2023-02-04T02:04:21;94782.50;;;4.74;100.00
5500;BME280;2772;42.700;23.304;2023-02-04T02:06:54;94782.44;;;4.50;100.00
5500;BME280;2772;42.700;23.304;2023-02-04T02:09:23;94799.88;;;4.46;100.00
5500;BME280;2772;42.700;23.304;2023-02-04T02:11:50;94775.63;;;4.44;100.00
5500;BME280;2772;42.700;23.304;2023-02-04T02:14:17;94786.88;;;4.55;100.00
5500;BME280;2772;42.700;23.304;2023-02-04T02:16:43;94761.13;;;4.42;100.00
5500;BME280;2772;42.700;23.304;2023-02-04T02:19:15;94755.09;;;4.41;100.00
5500;BME280;2772;42.700;23.304;2023-02-04T02:21:46;94758.47;;;4.47;100.00
5500;BME280;2772;42.700;23.304;2023-02-04T02:24:27;94768.69;;;4.53;100.00
5500;BME280;2772;42.700;23.304;2023-02-04T02:26:56;94756.72;;;4.66;100.00
5500;BME280;2772;42.700;23.304;2023-02-04T02:29:26;94757.78;;;4.65;100.00
5500;BME280;2772;42.700;23.304;2023-02-04T02:31:53;94732.47;;;4.64;100.00
5500;BME280;2772;42.700;23.304;2023-02-04T02:34:23;94716.66;;;4.64;100.00
5500;BME280;2772;42.700;23.304;2023-02-04T02:36:50;94704.03;;;4.61;100.00
5500;BME280;2772;42.700;23.304;2023-02-04T02:39:17;94706.34;;;4.67;100.00
5500;BME280;2772;42.700;23.304;2023-02-04T02:41:45;94702.84;;;4.72;100.00
5500;BME280;2772;42.700;23.304;2023-02-04T02:44:13;94687.81;;;4.72;100.00
5500;BME280;2772;42.700;23.304;2023-02-04T02:46:41;94698.81;;;4.79;100.00
5500;BME280;2772;42.700;23.304;2023-02-04T02:49:12;94709.03;;;4.86;100.00
5500;BME280;2772;42.700;23.304;2023-02-04T02:51:40;94691.25;;;4.97;100.00
5500;BME280;2772;42.700;23.304;2023-02-04T02:54:21;94679.41;;;4.94;100.00
5500;BME280;2772;42.700;23.304;2023-02-04T02:56:50;94672.09;;;4.86;100.00
5500;BME280;2772;42.700;23.304;2023-02-04T02:59:18;94684.78;;;4.84;100.00
5500;BME280;2772;42.700;23.304;2023-02-04T03:01:47;94680.34;;;4.79;100.00
5500;BME280;2772;42.700;23.304;2023-02-04T03:04:16;94675.16;;;4.74;100.00
5500;BME280;2772;42.700;23.304;2023-02-04T03:06:43;94685.28;;;4.62;100.00
5500;BME280;2772;42.700;23.304;2023-02-04T03:09:10;94684.72;;;4.65;100.00
5500;BME280;2772;42.700;23.304;2023-02-04T03:11:37;94681.31;;;4.65;100.00
5500;BME280;2772;42.700;23.304;2023-02-04T03:14:05;94692.22;;;4.53;100.00
5500;BME280;2772;42.700;23.304;2023-02-04T03:16:33;94700.66;;;4.55;100.00
5500;BME280;2772;42.700;23.304;2023-02-04T03:19:02;94698.09;;;4.45;100.00
5500;BME280;2772;42.700;23.304;2023-02-04T03:21:31;94686.97;;;4.53;100.00
5500;BME280;2772;42.700;23.304;2023-02-04T03:23:58;94674.00;;;4.57;100.00
5500;BME280;2772;42.700;23.304;2023-02-04T03:26:25;94666.88;;;4.57;100.00
5500;BME280;2772;42.700;23.304;2023-02-04T03:28:53;94678.69;;;4.65;100.00
5500;BME280;2772;42.700;23.304;2023-02-04T03:31:21;94682.66;;;4.62;100.00
5500;BME280;2772;42.700;23.304;2023-02-04T03:33:48;94679.84;;;4.54;100.00
5500;BME280;2772;42.700;23.304;2023-02-04T03:36:15;94690.41;;;4.54;100.00
5500;BME280;2772;42.700;23.304;2023-02-04T03:38:42;94688.34;;;4.46;100.00
5500;BME280;2772;42.700;23.304;2023-02-04T03:41:08;94689.28;;;4.31;100.00
5500;BME280;2772;42.700;23.304;2023-02-04T03:43:35;94683.06;;;4.17;100.00
5500;BME280;2772;42.700;23.304;2023-02-04T03:46:02;94664.38;;;4.14;100.00
5500;BME280;2772;42.700;23.304;2023-02-04T03:48:30;94649.56;;;4.23;100.00
5500;BME280;2772;42.700;23.304;2023-02-04T03:50:57;94657.78;;;4.16;100.00
5500;BME280;2772;42.700;23.304;2023-02-04T03:53:23;94666.84;;;4.05;100.00
5500;BME280;2772;42.700;23.304;2023-02-04T03:55:50;94658.66;;;4.07;100.00
5500;BME280;2772;42.700;23.304;2023-02-04T03:58:17;94652.63;;;4.01;100.00
5500;BME280;2772;42.700;23.304;2023-02-04T04:00:44;94649.28;;;3.96;100.00
5500;BME280;2772;42.700;23.304;2023-02-04T04:03:10;94640.25;;;4.02;100.00
5500;BME280;2772;42.700;23.304;2023-02-04T04:05:39;94641.28;;;4.06;100.00
5500;BME280;2772;42.700;23.304;2023-02-04T04:08:05;94637.56;;;4.12;100.00
5500;BME280;2772;42.700;23.304;2023-02-04T04:10:32;94629.66;;;4.12;100.00
5500;BME280;2772;42.700;23.304;2023-02-04T04:12:59;94618.78;;;4.18;100.00
5500;BME280;2772;42.700;23.304;2023-02-04T04:15:26;94619.72;;;4.04;100.00
5500;BME280;2772;42.700;23.304;2023-02-04T04:17:52;94624.66;;;4.10;100.00
5500;BME280;2772;42.700;23.304;2023-02-04T04:20:19;94621.75;;;4.12;100.00
5500;BME280;2772;42.700;23.304;2023-02-04T04:22:51;94617.31;;;4.07;100.00
5500;BME280;2772;42.700;23.304;2023-02-04T04:25:17;94609.16;;;4.04;100.00
5500;BME280;2772;42.700;23.304;2023-02-04T04:27:44;94625.00;;;3.99;100.00
5500;BME280;2772;42.700;23.304;2023-02-04T04:30:11;94623.34;;;4.08;100.00
5500;BME280;2772;42.700;23.304;2023-02-04T04:32:38;94632.78;;;4.14;100.00
5500;BME280;2772;42.700;23.304;2023-02-04T04:35:05;94627.97;;;4.21;100.00
5500;BME280;2772;42.700;23.304;2023-02-04T04:37:32;94618.00;;;4.18;100.00
5500;BME280;2772;42.700;23.304;2023-02-04T04:40:00;94627.50;;;4.14;100.00
5500;BME280;2772;42.700;23.304;2023-02-04T04:42:27;94623.78;;;4.20;100.00
5500;BME280;2772;42.700;23.304;2023-02-04T04:44:54;94633.97;;;4.26;100.00
5500;BME280;2772;42.700;23.304;2023-02-04T04:47:21;94648.97;;;4.31;100.00
5500;BME280;2772;42.700;23.304;2023-02-04T04:49:47;94644.94;;;4.38;100.00
5500;BME280;2772;42.700;23.304;2023-02-04T04:52:14;94637.47;;;4.45;100.00
5500;BME280;2772;42.700;23.304;2023-02-04T04:54:41;94641.91;;;4.50;100.00
5500;BME280;2772;42.700;23.304;2023-02-04T04:57:09;94637.47;;;4.45;100.00
5500;BME280;2772;42.700;23.304;2023-02-04T04:59:36;94641.63;;;4.51;100.00
5500;BME280;2772;42.700;23.304;2023-02-04T05:02:02;94642.66;;;4.55;100.00
5500;BME280;2772;42.700;23.304;2023-02-04T05:04:29;94646.56;;;4.58;100.00
5500;BME280;2772;42.700;23.304;2023-02-04T05:06:56;94640.78;;;4.56;100.00
5500;BME280;2772;42.700;23.304;2023-02-04T05:09:23;94643.09;;;4.62;100.00
5500;BME280;2772;42.700;23.304;2023-02-04T05:11:49;94628.03;;;4.68;100.00
5500;BME280;2772;42.700;23.304;2023-02-04T05:14:17;94643.78;;;4.73;100.00
5500;BME280;2772;42.700;23.304;2023-02-04T05:16:44;94665.38;;;4.75;100.00
5500;BME280;2772;42.700;23.304;2023-02-04T05:19:11;94662.97;;;4.78;100.00
5500;BME280;2772;42.700;23.304;2023-02-04T05:21:38;94669.31;;;4.77;100.00
5500;BME280;2772;42.700;23.304;2023-02-04T05:24:05;94667.78;;;4.71;100.00
5500;BME280;2772;42.700;23.304;2023-02-04T05:26:32;94672.06;;;4.67;100.00
5500;BME280;2772;42.700;23.304;2023-02-04T05:28:58;94683.97;;;4.65;100.00
5500;BME280;2772;42.700;23.304;2023-02-04T05:31:27;94693.88;;;4.49;100.00
5500;BME280;2772;42.700;23.304;2023-02-04T05:33:54;94694.31;;;4.56;100.00
5500;BME280;2772;42.700;23.304;2023-02-04T05:36:21;94690.72;;;4.47;100.00
5500;BME280;2772;42.700;23.304;2023-02-04T05:38:48;94714.34;;;4.29;100.00
5500;BME280;2772;42.700;23.304;2023-02-04T05:41:15;94679.56;;;4.27;100.00
5500;BME280;2772;42.700;23.304;2023-02-04T05:43:41;94687.06;;;4.15;100.00
5500;BME280;2772;42.700;23.304;2023-02-04T05:46:08;94689.69;;;4.15;100.00
5500;BME280;2772;42.700;23.304;2023-02-04T05:48:36;94690.53;;;4.10;100.00
5500;BME280;2772;42.700;23.304;2023-02-04T05:51:04;94682.34;;;4.12;100.00
5500;BME280;2772;42.700;23.304;2023-02-04T05:53:31;94676.34;;;4.01;100.00
5500;BME280;2772;42.700;23.304;2023-02-04T05:55:58;94667.94;;;3.99;100.00
5500;BME280;2772;42.700;23.304;2023-02-04T05:58:24;94659.59;;;3.87;100.00
5500;BME280;2772;42.700;23.304;2023-02-04T06:00:57;94658.59;;;3.83;100.00
5500;BME280;2772;42.700;23.304;2023-02-04T06:03:25;94668.25;;;3.93;100.00
5500;BME280;2772;42.700;23.304;2023-02-04T06:05:53;94678.22;;;4.01;100.00
5500;BME280;2772;42.700;23.304;2023-02-04T06:08:20;94665.91;;;3.91;100.00
5500;BME280;2772;42.700;23.304;2023-02-04T06:10:47;94674.81;;;3.95;100.00
5500;BME280;2772;42.700;23.304;2023-02-04T06:13:14;94674.22;;;4.03;100.00
5500;BME280;2772;42.700;23.304;2023-02-04T06:15:41;94696.28;;;4.12;100.00
5500;BME280;2772;42.700;23.304;2023-02-04T06:18:08;94702.22;;;4.28;100.00
5500;BME280;2772;42.700;23.304;2023-02-04T06:20:34;94699.22;;;4.39;100.00
5500;BME280;2772;42.700;23.304;2023-02-04T06:23:02;94695.47;;;4.45;100.00
5500;BME280;2772;42.700;23.304;2023-02-04T06:25:29;94701.56;;;4.41;100.00
5500;BME280;2772;42.700;23.304;2023-02-04T06:27:56;94707.31;;;4.48;100.00
5500;BME280;2772;42.700;23.304;2023-02-04T06:30:23;94704.50;;;4.39;100.00
5500;BME280;2772;42.700;23.304;2023-02-04T06:32:49;94703.91;;;4.47;100.00
5500;BME280;2772;42.700;23.304;2023-02-04T06:35:16;94698.06;;;4.50;100.00
5500;BME280;2772;42.700;23.304;2023-02-04T06:37:43;94713.66;;;4.47;100.00
5500;BME280;2772;42.700;23.304;2023-02-04T06:40:11;94710.44;;;4.50;100.00
5500;BME280;2772;42.700;23.304;2023-02-04T06:42:38;94711.00;;;4.47;100.00
5500;BME280;2772;42.700;23.304;2023-02-04T06:45:06;94712.44;;;4.63;100.00
5500;BME280;2772;42.700;23.304;2023-02-04T06:47:32;94719.00;;;4.65;100.00
5500;BME280;2772;42.700;23.304;2023-02-04T06:49:59;94715.44;;;4.80;100.00
5500;BME280;2772;42.700;23.304;2023-02-04T06:52:26;94718.97;;;4.94;100.00
5500;BME280;2772;42.700;23.304;2023-02-04T06:54:53;94710.22;;;4.99;100.00
5500;BME280;2772;42.700;23.304;2023-02-04T06:57:21;94709.22;;;4.95;100.00
5500;BME280;2772;42.700;23.304;2023-02-04T06:59:48;94700.56;;;5.13;100.00
5500;BME280;2772;42.700;23.304;2023-02-04T07:02:14;94699.00;;;5.12;100.00
5500;BME280;2772;42.700;23.304;2023-02-04T07:04:41;94696.13;;;5.08;100.00
5500;BME280;2772;42.700;23.304;2023-02-04T07:07:09;94699.59;;;5.27;100.00
5500;BME280;2772;42.700;23.304;2023-02-04T07:09:35;94692.25;;;5.24;100.00
5500;BME280;2772;42.700;23.304;2023-02-04T07:12:05;94689.91;;;5.23;100.00
5500;BME280;2772;42.700;23.304;2023-02-04T07:14:33;94696.03;;;5.18;100.00
5500;BME280;2772;42.700;23.304;2023-02-04T07:17:00;94683.41;;;5.15;100.00
5500;BME280;2772;42.700;23.304;2023-02-04T07:19:26;94687.75;;;5.25;100.00
5500;BME280;2772;42.700;23.304;2023-02-04T07:21:53;94696.69;;;5.29;100.00
5500;BME280;2772;42.700;23.304;2023-02-04T07:24:21;94673.91;;;5.33;100.00
5500;BME280;2772;42.700;23.304;2023-02-04T07:26:48;94672.22;;;5.42;100.00
5500;BME280;2772;42.700;23.304;2023-02-04T07:29:15;94668.44;;;5.48;100.00
5500;BME280;2772;42.700;23.304;2023-02-04T07:31:44;94662.50;;;5.37;100.00
5500;BME280;2772;42.700;23.304;2023-02-04T07:34:11;94666.28;;;5.50;100.00
5500;BME280;2772;42.700;23.304;2023-02-04T07:36:38;94675.16;;;5.59;100.00
5500;BME280;2772;42.700;23.304;2023-02-04T07:39:05;94670.94;;;5.95;100.00
5500;BME280;2772;42.700;23.304;2023-02-04T07:41:32;94662.44;;;6.16;100.00
5500;BME280;2772;42.700;23.304;2023-02-04T07:43:59;94665.91;;;6.44;100.00
5500;BME280;2772;42.700;23.304;2023-02-04T07:46:26;94664.41;;;6.84;100.00
5500;BME280;2772;42.700;23.304;2023-02-04T07:48:54;94658.84;;;6.85;100.00
5500;BME280;2772;42.700;23.304;2023-02-04T07:51:21;94679.69;;;6.73;100.00
5500;BME280;2772;42.700;23.304;2023-02-04T07:53:48;94668.41;;;6.68;100.00
5500;BME280;2772;42.700;23.304;2023-02-04T07:56:14;94674.16;;;6.56;100.00
5500;BME280;2772;42.700;23.304;2023-02-04T07:58:41;94681.28;;;6.42;100.00
5500;BME280;2772;42.700;23.304;2023-02-04T08:01:08;94673.13;;;6.38;100.00
5500;BME280;2772;42.700;23.304;2023-02-04T08:03:35;94682.75;;;6.34;100.00
5500;BME280;2772;42.700;23.304;2023-02-04T08:06:03;94681.84;;;6.25;100.00
5500;BME280;2772;42.700;23.304;2023-02-04T08:08:30;94680.34;;;6.19;100.00
5500;BME280;2772;42.700;23.304;2023-02-04T08:10:56;94687.19;;;6.20;100.00
5500;BME280;2772;42.700;23.304;2023-02-04T08:13:23;94683.38;;;6.13;100.00
5500;BME280;2772;42.700;23.304;2023-02-04T08:15:50;94680.97;;;5.98;100.00
5500;BME280;2772;42.700;23.304;2023-02-04T08:18:17;94684.72;;;5.92;100.00
5500;BME280;2772;42.700;23.304;2023-02-04T08:20:43;94694.66;;;6.00;100.00
5500;BME280;2772;42.700;23.304;2023-02-04T08:23:12;94694.25;;;5.93;100.00
5500;BME280;2772;42.700;23.304;2023-02-04T08:25:38;94688.56;;;6.18;100.00
5500;BME280;2772;42.700;23.304;2023-02-04T08:28:05;94670.75;;;6.69;100.00
5500;BME280;2772;42.700;23.304;2023-02-04T08:30:32;94666.94;;;6.62;100.00
5500;BME280;2772;42.700;23.304;2023-02-04T08:32:59;94672.38;;;6.38;100.00
5500;BME280;2772;42.700;23.304;2023-02-04T08:35:25;94678.94;;;6.40;100.00
5500;BME280;2772;42.700;23.304;2023-02-04T08:37:52;94672.38;;;6.38;100.00
5500;BME280;2772;42.700;23.304;2023-02-04T08:40:22;94680.09;;;6.34;100.00
5500;BME280;2772;42.700;23.304;2023-02-04T08:42:48;94673.41;;;6.23;100.00
5500;BME280;2772;42.700;23.304;2023-02-04T08:45:15;94680.00;;;6.07;100.00
5500;BME280;2772;42.700;23.304;2023-02-04T08:47:42;94669.25;;;5.85;100.00
5500;BME280;2772;42.700;23.304;2023-02-04T08:50:09;94668.09;;;5.73;100.00
5500;BME280;2772;42.700;23.304;2023-02-04T08:52:36;94665.88;;;5.80;100.00
5500;BME280;2772;42.700;23.304;2023-02-04T08:55:03;94660.94;;;5.73;100.00
5500;BME280;2772;42.700;23.304;2023-02-04T08:57:32;94663.81;;;5.77;100.00
5500;BME280;2772;42.700;23.304;2023-02-04T08:59:59;94651.53;;;5.67;100.00
5500;BME280;2772;42.700;23.304;2023-02-04T09:02:26;94656.59;;;5.64;100.00
5500;BME280;2772;42.700;23.304;2023-02-04T09:04:52;94655.59;;;5.60;100.00
5500;BME280;2772;42.700;23.304;2023-02-04T09:07:19;94657.53;;;5.73;100.00
5500;BME280;2772;42.700;23.304;2023-02-04T09:09:46;94651.38;;;5.77;100.00
5500;BME280;2772;42.700;23.304;2023-02-04T09:12:13;94650.25;;;5.83;100.00
5500;BME280;2772;42.700;23.304;2023-02-04T09:14:41;94655.19;;;5.90;100.00
5500;BME280;2772;42.700;23.304;2023-02-04T09:17:08;94651.78;;;6.03;100.00
5500;BME280;2772;42.700;23.304;2023-02-04T09:19:35;94654.00;;;6.14;100.00
5500;BME280;2772;42.700;23.304;2023-02-04T09:22:01;94661.94;;;6.14;100.00
5500;BME280;2772;42.700;23.304;2023-02-04T09:24:28;94651.56;;;6.18;100.00
5500;BME280;2772;42.700;23.304;2023-02-04T09:26:55;94656.22;;;6.39;100.00
5500;BME280;2772;42.700;23.304;2023-02-04T09:29:22;94653.56;;;6.39;100.00
5500;BME280;2772;42.700;23.304;2023-02-04T09:31:50;94647.09;;;6.32;100.00
5500;BME280;2772;42.700;23.304;2023-02-04T09:34:16;94644.50;;;6.13;100.00
5500;BME280;2772;42.700;23.304;2023-02-04T09:36:43;94654.88;;;6.10;100.00
5500;BME280;2772;42.700;23.304;2023-02-04T09:39:10;94654.53;;;5.98;100.00
5500;BME280;2772;42.700;23.304;2023-02-04T09:41:37;94652.91;;;5.83;100.00
5500;BME280;2772;42.700;23.304;2023-02-04T09:44:09;94635.59;;;5.91;100.00
5500;BME280;2772;42.700;23.304;2023-02-04T09:46:39;94638.53;;;5.89;100.00
5500;BME280;2772;42.700;23.304;2023-02-04T09:49:09;94629.34;;;5.87;100.00
5500;BME280;2772;42.700;23.304;2023-02-04T09:51:36;94636.50;;;5.81;100.00
5500;BME280;2772;42.700;23.304;2023-02-04T09:54:07;94626.88;;;5.72;100.00
5500;BME280;2772;42.700;23.304;2023-02-04T09:56:34;94629.53;;;5.72;100.00
5500;BME280;2772;42.700;23.304;2023-02-04T09:59:03;94627.91;;;5.76;100.00
5500;BME280;2772;42.700;23.304;2023-02-04T10:01:30;94621.53;;;5.77;100.00
5500;BME280;2772;42.700;23.304;2023-02-04T10:04:00;94617.75;;;5.83;100.00
5500;BME280;2772;42.700;23.304;2023-02-04T10:06:28;94625.44;;;5.79;100.00
5500;BME280;2772;42.700;23.304;2023-02-04T10:08:55;94609.69;;;5.74;100.00
5500;BME280;2772;42.700;23.304;2023-02-04T10:11:24;94605.69;;;5.77;100.00
5500;BME280;2772;42.700;23.304;2023-02-04T10:13:53;94608.22;;;5.87;100.00
5500;BME280;2772;42.700;23.304;2023-02-04T10:16:22;94607.41;;;5.86;100.00
5500;BME280;2772;42.700;23.304;2023-02-04T10:18:54;94602.94;;;5.87;100.00
5500;BME280;2772;42.700;23.304;2023-02-04T10:21:24;94595.06;;;5.82;100.00
5500;BME280;2772;42.700;23.304;2023-02-04T10:23:55;94592.06;;;5.88;100.00
5500;BME280;2772;42.700;23.304;2023-02-04T10:26:25;94593.75;;;5.79;100.00
5500;BME280;2772;42.700;23.304;2023-02-04T10:28:58;94587.25;;;5.72;100.00
5500;BME280;2772;42.700;23.304;2023-02-04T10:31:27;94584.28;;;5.60;100.00
5500;BME280;2772;42.700;23.304;2023-02-04T10:34:05;94576.22;;;5.70;100.00
5500;BME280;2772;42.700;23.304;2023-02-04T10:36:32;94592.34;;;5.50;100.00
5500;BME280;2772;42.700;23.304;2023-02-04T10:39:01;94590.28;;;5.47;100.00
5500;BME280;2772;42.700;23.304;2023-02-04T10:41:28;94578.47;;;5.44;100.00
5500;BME280;2772;42.700;23.304;2023-02-04T10:44:03;94596.66;;;5.46;100.00
5500;BME280;2772;42.700;23.304;2023-02-04T10:46:30;94575.38;;;5.37;100.00
5500;BME280;2772;42.700;23.304;2023-02-04T10:48:57;94579.84;;;5.42;100.00
5500;BME280;2772;42.700;23.304;2023-02-04T10:51:24;94568.53;;;5.36;100.00
5500;BME280;2772;42.700;23.304;2023-02-04T10:53:51;94574.09;;;5.35;100.00
5500;BME280;2772;42.700;23.304;2023-02-04T10:56:37;94562.84;;;5.48;100.00
5500;BME280;2772;42.700;23.304;2023-02-04T10:59:04;94558.38;;;5.62;100.00
5500;BME280;2772;42.700;23.304;2023-02-04T11:01:31;94563.47;;;5.58;100.00
5500;BME280;2772;42.700;23.304;2023-02-04T11:03:58;94551.69;;;5.51;100.00
5500;BME280;2772;42.700;23.304;2023-02-04T11:06:25;94550.47;;;5.62;100.00
5500;BME280;2772;42.700;23.304;2023-02-04T11:08:52;94554.66;;;5.63;100.00
5500;BME280;2772;42.700;23.304;2023-02-04T11:11:21;94551.38;;;5.71;100.00
5500;BME280;2772;42.700;23.304;2023-02-04T11:13:59;94546.97;;;5.80;100.00
5500;BME280;2772;42.700;23.304;2023-02-04T11:16:28;94545.78;;;5.91;100.00
5500;BME280;2772;42.700;23.304;2023-02-04T11:18:58;94544.44;;;6.07;100.00
5500;BME280;2772;42.700;23.304;2023-02-04T11:21:28;94549.72;;;6.07;100.00
5500;BME280;2772;42.700;23.304;2023-02-04T11:24:16;94554.44;;;6.10;100.00
5500;BME280;2772;42.700;23.304;2023-02-04T11:26:47;94538.56;;;6.10;100.00
5500;BME280;2772;42.700;23.304;2023-02-04T11:29:29;94548.63;;;6.08;100.00
5500;BME280;2772;42.700;23.304;2023-02-04T11:32:04;94545.03;;;6.04;100.00
5500;BME280;2772;42.700;23.304;2023-02-04T11:34:44;94550.38;;;5.85;100.00
5500;BME280;2772;42.700;23.304;2023-02-04T11:37:17;94545.50;;;5.74;100.00
5500;BME280;2772;42.700;23.304;2023-02-04T11:39:46;94542.34;;;5.72;100.00
5500;BME280;2772;42.700;23.304;2023-02-04T11:42:19;94538.97;;;5.71;100.00
5500;BME280;2772;42.700;23.304;2023-02-04T11:44:51;94540.44;;;5.77;100.00
5500;BME280;2772;42.700;23.304;2023-02-04T11:47:21;94539.66;;;5.77;100.00
5500;BME280;2772;42.700;23.304;2023-02-04T11:49:53;94539.06;;;5.80;100.00
5500;BME280;2772;42.700;23.304;2023-02-04T11:52:21;94538.34;;;5.93;100.00
5500;BME280;2772;42.700;23.304;2023-02-04T11:54:55;94541.00;;;5.93;100.00
5500;BME280;2772;42.700;23.304;2023-02-04T11:57:23;94537.44;;;5.84;100.00
5500;BME280;2772;42.700;23.304;2023-02-04T11:59:51;94542.16;;;5.87;100.00
5500;BME280;2772;42.700;23.304;2023-02-04T12:02:19;94543.84;;;6.10;100.00
5500;BME280;2772;42.700;23.304;2023-02-04T12:04:51;94550.19;;;5.95;100.00
5500;BME280;2772;42.700;23.304;2023-02-04T12:07:23;94548.34;;;5.96;100.00
5500;BME280;2772;42.700;23.304;2023-02-04T12:09:50;94547.16;;;5.88;100.00
5500;BME280;2772;42.700;23.304;2023-02-04T12:12:23;94535.88;;;5.83;100.00
5500;BME280;2772;42.700;23.304;2023-02-04T12:14:59;94529.75;;;5.69;100.00
5500;BME280;2772;42.700;23.304;2023-02-04T12:17:26;94530.75;;;5.73;100.00
5500;BME280;2772;42.700;23.304;2023-02-04T12:19:53;94529.06;;;5.63;100.00
5500;BME280;2772;42.700;23.304;2023-02-04T12:22:20;94528.00;;;5.78;100.00
5500;BME280;2772;42.700;23.304;2023-02-04T12:24:47;94526.38;;;5.82;100.00
5500;BME280;2772;42.700;23.304;2023-02-04T12:27:13;94520.53;;;5.85;100.00
5500;BME280;2772;42.700;23.304;2023-02-04T12:29:40;94520.56;;;5.80;100.00
5500;BME280;2772;42.700;23.304;2023-02-04T12:32:08;94519.59;;;5.76;100.00
5500;BME280;2772;42.700;23.304;2023-02-04T12:34:35;94508.91;;;5.67;100.00
5500;BME280;2772;42.700;23.304;2023-02-04T12:37:01;94520.53;;;5.98;100.00
5500;BME280;2772;42.700;23.304;2023-02-04T12:39:28;94506.50;;;5.84;100.00
5500;BME280;2772;42.700;23.304;2023-02-04T12:41:56;94510.91;;;5.89;100.00
5500;BME280;2772;42.700;23.304;2023-02-04T12:44:23;94510.00;;;5.80;100.00
5500;BME280;2772;42.700;23.304;2023-02-04T12:46:49;94510.53;;;5.82;100.00
5500;BME280;2772;42.700;23.304;2023-02-04T12:49:18;94518.16;;;5.83;100.00
5500;BME280;2772;42.700;23.304;2023-02-04T12:51:45;94512.09;;;5.83;100.00
5500;BME280;2772;42.700;23.304;2023-02-04T12:54:12;94516.13;;;5.94;100.00
5500;BME280;2772;42.700;23.304;2023-02-04T12:56:38;94525.59;;;5.95;100.00
5500;BME280;2772;42.700;23.304;2023-02-04T12:59:05;94527.69;;;5.98;100.00
5500;BME280;2772;42.700;23.304;2023-02-04T13:01:32;94525.22;;;5.88;100.00
5500;BME280;2772;42.700;23.304;2023-02-04T13:03:59;94527.16;;;5.64;100.00
5500;BME280;2772;42.700;23.304;2023-02-04T13:06:27;94518.81;;;5.75;100.00
5500;BME280;2772;42.700;23.304;2023-02-04T13:08:54;94527.59;;;5.71;100.00
5500;BME280;2772;42.700;23.304;2023-02-04T13:11:21;94519.75;;;5.66;100.00
5500;BME280;2772;42.700;23.304;2023-02-04T13:13:48;94533.13;;;5.56;100.00